createdAt,value
2022-08-30T00:03:01.375Z,21.50
2022-08-30T00:08:04.653Z,21.40
2022-08-30T00:13:12.403Z,21.50
2022-08-30T00:18:18.377Z,21.50
2022-08-30T00:23:21.763Z,21.60
2022-08-30T00:28:25.508Z,21.60
2022-08-30T00:33:29.220Z,21.70
2022-08-30T00:38:32.219Z,21.80
2022-08-30T00:43:36.824Z,21.80
2022-08-30T00:48:44.871Z,21.90
2022-08-30T00:53:54.939Z,22.00
2022-08-30T00:59:00.537Z,21.90
2022-08-30T01:04:06.615Z,22.00
2022-08-30T01:09:09.759Z,22.00
2022-08-30T01:14:14.360Z,21.70
2022-08-30T01:19:49.705Z,21.50
2022-08-30T01:24:56.502Z,21.40
2022-08-30T01:29:59.581Z,21.30
2022-08-30T01:35:02.538Z,21.30
2022-08-30T01:40:09.851Z,21.20
2022-08-30T01:45:13.464Z,21.10
2022-08-30T01:50:17.285Z,21.10
2022-08-30T01:55:20.222Z,20.90
2022-08-30T02:00:23.416Z,20.90
2022-08-30T02:05:26.552Z,20.90
2022-08-30T02:10:30.462Z,20.90
2022-08-30T02:15:41.726Z,20.80
2022-08-30T02:20:44.929Z,20.70
2022-08-30T02:25:47.818Z,20.70
2022-08-30T02:30:51.846Z,20.60
2022-08-30T02:35:56.163Z,20.60
2022-08-30T02:40:59.396Z,20.60
2022-08-30T02:46:02.491Z,20.50
2022-08-30T02:51:11.674Z,20.50
2022-08-30T02:56:15.652Z,20.50
2022-08-30T03:01:18.622Z,20.50
2022-08-30T03:06:21.862Z,20.40
2022-08-30T03:11:25.265Z,20.40
2022-08-30T03:16:28.161Z,20.30
2022-08-30T03:21:31.072Z,20.20
2022-08-30T03:26:34.065Z,20.20
2022-08-30T03:31:45.384Z,20.20
2022-08-30T03:36:57.169Z,20.30
2022-08-30T03:42:00.214Z,20.30
2022-08-30T03:47:03.761Z,20.20
2022-08-30T03:52:06.658Z,20.10
2022-08-30T03:57:11.588Z,20.00
2022-08-30T04:02:23.608Z,19.80
2022-08-30T04:07:27.046Z,19.70
2022-08-30T04:12:30.086Z,19.70
2022-08-30T04:17:33.027Z,19.70
2022-08-30T04:22:37.477Z,19.70
2022-08-30T04:27:40.276Z,19.60
2022-08-30T04:32:45.451Z,19.60
2022-08-30T04:37:48.584Z,19.70
2022-08-30T04:42:54.453Z,19.70
2022-08-30T04:47:57.531Z,19.80
2022-08-30T04:53:00.542Z,19.80
2022-08-30T04:58:03.662Z,19.90
2022-08-30T05:03:06.482Z,20.00
2022-08-30T05:08:12.884Z,20.10
2022-08-30T05:13:19.196Z,20.20
2022-08-30T05:18:22.005Z,20.30
2022-08-30T05:23:25.270Z,20.30
2022-08-30T05:28:28.152Z,20.40
2022-08-30T05:33:31.766Z,20.50
2022-08-30T05:38:46.226Z,20.70
2022-08-30T05:43:52.416Z,20.90
2022-08-30T05:48:57.053Z,21.10
2022-08-30T05:54:01.358Z,21.20
2022-08-30T05:59:09.193Z,21.40
2022-08-30T06:04:14.063Z,21.50
2022-08-30T06:09:17.990Z,21.60
2022-08-30T06:14:21.198Z,21.80
2022-08-30T06:19:24.202Z,21.90
2022-08-30T06:24:41.221Z,22.10
2022-08-30T06:29:53.527Z,22.10
2022-08-30T06:34:57.159Z,22.30
2022-08-30T06:40:01.350Z,22.40
2022-08-30T06:45:10.763Z,22.60
2022-08-30T06:50:16.741Z,22.70
2022-08-30T06:55:20.710Z,22.80
2022-08-30T07:00:23.626Z,23.00
2022-08-30T07:05:26.414Z,23.20
2022-08-30T07:10:29.310Z,23.40
2022-08-30T07:15:33.948Z,23.60
2022-08-30T07:20:41.305Z,23.70
2022-08-30T07:25:44.566Z,24.00
2022-08-30T07:30:47.441Z,24.30
2022-08-30T07:35:50.153Z,24.50
2022-08-30T07:40:53.380Z,24.70
2022-08-30T07:46:07.831Z,25.00
2022-08-30T07:51:17.106Z,25.40
2022-08-30T07:56:20.977Z,25.90
2022-08-30T08:01:24.744Z,26.10
2022-08-30T08:06:27.776Z,26.10
2022-08-30T08:11:37.480Z,26.20
2022-08-30T08:16:42.348Z,26.20
2022-08-30T08:21:45.456Z,26.20
2022-08-30T08:26:48.223Z,26.20
2022-08-30T08:31:51.195Z,26.30
2022-08-30T08:36:54.689Z,26.40
2022-08-30T08:42:28.068Z,26.40
2022-08-30T08:47:48.389Z,26.60
2022-08-30T08:53:44.441Z,26.80
2022-08-30T08:58:47.436Z,27.00
2022-08-30T09:03:51.385Z,27.00
2022-08-30T09:08:55.260Z,27.20
2022-08-30T09:13:58.952Z,27.40
2022-08-30T09:19:01.860Z,27.60
2022-08-30T09:24:08.696Z,27.50
2022-08-30T09:29:19.432Z,27.70
2022-08-30T09:34:24.068Z,27.90
2022-08-30T09:39:34.028Z,28.20
2022-08-30T09:44:38.821Z,28.10
2022-08-30T09:49:44.737Z,28.00
2022-08-30T09:55:15.330Z,28.00
2022-08-30T10:00:22.738Z,28.20
2022-08-30T10:05:52.509Z,28.50
2022-08-30T10:11:04.737Z,28.90
2022-08-30T10:16:49.533Z,29.40
2022-08-30T10:22:14.533Z,29.60
2022-08-30T10:27:33.458Z,29.60
2022-08-30T10:33:17.684Z,29.60
2022-08-30T10:38:33.477Z,29.60
2022-08-30T10:43:59.235Z,30.00
2022-08-30T10:49:05.370Z,30.30
2022-08-30T10:54:32.537Z,30.30
2022-08-30T10:59:45.746Z,30.30
2022-08-30T11:05:22.736Z,30.20
2022-08-30T11:10:47.758Z,29.90
2022-08-30T11:16:08.016Z,29.40
2022-08-30T11:21:42.258Z,29.00
2022-08-30T11:26:54.758Z,28.90
2022-08-30T11:32:23.454Z,28.80
2022-08-30T11:37:45.122Z,28.80
2022-08-30T11:42:51.655Z,28.90
2022-08-30T11:48:05.568Z,29.00
2022-08-30T11:53:33.319Z,29.10
2022-08-30T11:58:55.904Z,29.50
2022-08-30T12:04:45.878Z,29.60
2022-08-30T12:09:48.631Z,29.50
2022-08-30T12:14:55.949Z,29.40
2022-08-30T12:19:59.830Z,29.10
2022-08-30T12:25:13.559Z,28.80
2022-08-30T12:30:28.111Z,28.80
2022-08-30T12:35:33.954Z,28.70
2022-08-30T12:40:58.081Z,28.70
2022-08-30T12:46:06.470Z,28.60
2022-08-30T12:51:39.367Z,28.50
2022-08-30T12:57:09.980Z,28.50
2022-08-30T13:02:24.740Z,28.40
2022-08-30T13:07:36.184Z,28.40
2022-08-30T13:12:40.472Z,28.40
2022-08-30T13:17:44.894Z,28.50
2022-08-30T13:23:11.148Z,28.60
2022-08-30T13:28:14.610Z,28.90
2022-08-30T13:33:19.014Z,29.20
2022-08-30T13:38:21.815Z,29.50
2022-08-30T13:43:24.858Z,29.70
2022-08-30T13:48:27.960Z,30.00
2022-08-30T13:58:54.287Z,30.20
2022-08-30T14:04:15.673Z,30.30
2022-08-30T14:09:19.173Z,30.30
2022-08-30T14:14:36.469Z,30.50
2022-08-30T14:19:44.733Z,30.60
2022-08-30T14:24:47.690Z,30.70
2022-08-30T14:29:50.573Z,30.90
2022-08-30T14:34:53.522Z,30.90
2022-08-30T14:39:56.462Z,30.50
2022-08-30T14:45:00.187Z,30.20
2022-08-30T14:50:05.799Z,29.80
2022-08-30T14:55:11.859Z,29.60
2022-08-30T15:00:16.055Z,29.30
2022-08-30T15:05:20.758Z,29.20
2022-08-30T15:10:24.280Z,29.40
2022-08-30T15:15:27.284Z,29.90
2022-08-30T15:20:30.647Z,30.10
2022-08-30T15:25:33.580Z,30.50
2022-08-30T15:30:37.156Z,30.90
2022-08-30T15:35:39.989Z,31.30
2022-08-30T15:40:44.663Z,31.70
2022-08-30T15:45:47.835Z,32.00
2022-08-30T15:50:58.690Z,32.30
2022-08-30T15:56:01.875Z,32.50
2022-08-30T16:01:05.778Z,32.70
2022-08-30T16:06:19.522Z,32.50
2022-08-30T16:11:25.054Z,32.00
2022-08-30T16:16:28.563Z,31.40
2022-08-30T16:21:36.816Z,30.80
2022-08-30T16:26:39.859Z,30.30
2022-08-30T16:31:47.447Z,29.80
2022-08-30T16:36:50.492Z,29.40
2022-08-30T16:41:53.252Z,29.20
2022-08-30T16:46:56.651Z,28.80
2022-08-30T16:51:59.700Z,28.50
2022-08-30T16:57:02.608Z,28.20
2022-08-30T17:02:05.456Z,27.90
2022-08-30T17:07:13.747Z,27.60
2022-08-30T17:12:17.539Z,27.40
2022-08-30T17:17:22.137Z,27.20
2022-08-30T17:22:25.188Z,27.00
2022-08-30T17:27:29.394Z,26.90
2022-08-30T17:32:32.678Z,26.70
2022-08-30T17:37:35.481Z,26.50
2022-08-30T17:42:38.947Z,26.30
2022-08-30T17:47:42.432Z,26.10
2022-08-30T17:52:45.781Z,25.90
2022-08-30T17:57:50.859Z,25.70
2022-08-30T18:02:53.997Z,25.60
2022-08-30T18:07:56.775Z,25.40
2022-08-30T18:12:59.832Z,25.30
2022-08-30T18:18:04.268Z,25.10
2022-08-30T18:23:07.345Z,25.00
2022-08-30T18:28:10.286Z,24.90
2022-08-30T18:33:15.749Z,24.80
2022-08-30T18:38:23.777Z,24.80
2022-08-30T18:43:31.153Z,24.80
2022-08-30T18:48:35.835Z,24.70
2022-08-30T18:53:39.547Z,24.60
2022-08-30T18:58:47.526Z,24.50
2022-08-30T19:03:50.729Z,24.50
2022-08-30T19:08:56.068Z,24.40
2022-08-30T19:13:58.948Z,24.20
2022-08-30T19:19:03.120Z,24.10
2022-08-30T19:24:06.261Z,23.80
2022-08-30T19:29:12.290Z,23.60
2022-08-30T19:34:15.195Z,23.30
2022-08-30T19:39:18.078Z,23.20
2022-08-30T19:44:21.301Z,23.10
2022-08-30T19:49:24.043Z,23.10
2022-08-30T19:54:27.526Z,23.00
2022-08-30T19:59:30.312Z,22.90
2022-08-30T20:04:33.619Z,22.90
2022-08-30T20:09:36.724Z,22.80
2022-08-30T20:14:40.646Z,22.70
2022-08-30T20:19:46.177Z,22.70
2022-08-30T20:24:48.961Z,22.70
2022-08-30T20:29:52.876Z,22.60
2022-08-30T20:34:55.922Z,22.50
2022-08-30T20:40:00.824Z,22.40
2022-08-30T20:45:05.968Z,22.30
2022-08-30T20:50:15.093Z,22.30
2022-08-30T20:55:17.979Z,22.20
2022-08-30T21:00:21.337Z,22.10
2022-08-30T21:05:24.859Z,22.10
2022-08-30T21:10:27.709Z,22.00
2022-08-30T21:15:38.399Z,21.90
2022-08-30T21:20:41.802Z,21.90
2022-08-30T21:25:44.811Z,21.80
2022-08-30T21:30:47.817Z,21.70
2022-08-30T21:36:09.082Z,21.70
2022-08-30T21:41:12.842Z,21.70
2022-08-30T21:46:16.697Z,21.70
2022-08-30T21:51:20.762Z,21.70
2022-08-30T21:56:23.798Z,21.60
2022-08-30T22:01:30.202Z,21.50
2022-08-30T22:06:36.017Z,21.40
2022-08-30T22:11:38.851Z,21.30
2022-08-30T22:16:42.439Z,21.20
2022-08-30T22:21:47.985Z,21.20
2022-08-30T22:26:52.220Z,21.10
2022-08-30T22:31:55.236Z,21.10
2022-08-30T22:36:59.580Z,21.10
2022-08-30T22:42:02.344Z,21.00
2022-08-30T22:47:05.486Z,20.90
2022-08-30T22:52:09.163Z,20.80
2022-08-30T22:57:15.664Z,20.70
2022-08-30T23:02:18.942Z,20.70
2022-08-30T23:07:21.793Z,20.80
2022-08-30T23:12:26.434Z,20.70
2022-08-30T23:17:29.314Z,20.70
2022-08-30T23:22:34.641Z,20.70
2022-08-30T23:27:56.255Z,20.70
2022-08-30T23:33:17.562Z,20.70
2022-08-30T23:38:39.313Z,20.60
2022-08-30T23:44:01.019Z,20.60
2022-08-30T23:49:22.535Z,20.60
2022-08-30T23:54:44.217Z,20.50
